Terminal Aerodrome Forecast
Issued by NWS

Home | Current Version | Previous Version | Text Only | Print | Product List | Glossary On
Versions: 1 2 3 4 5 6 7 8 9 10 11 12 13 14 15 16 17 18 19 20
000
FTUS41 KBOX 221729
TAFACK
TAF
KACK 221729Z 2218/2318 18007KT P6SM OVC200
     FM222100 16008KT P6SM -SHRA OVC070
     FM230400 14007KT 1/2SM -SHRA FG OVC003
     FM230500 15006KT 1/2SM FG OVC003
     FM230800 24006KT 1/2SM FG OVC003
     FM231300 27008KT 1SM BR OVC003
     FM231600 27008KT P6SM BKN010=

USA.gov is the U.S. government's official web portal to all federal, state and local government web resources and services.